Time;durP1;ratioP1;P1;durP2;ratioP2;P2;SDS_P1;SDS_P2;PMS_P1;PMS_P2;Temp;Humidity;BMP_temperature;BMP_pressure;BME280_temperature;BME280_humidity;BME280_pressure;Samples;Min_cycle;Max_cycle;Signal;HPM_P1;HPM_P2
2021/11/11 00:01:17;;;;;;;230.77;78.47;;;8.50;96.00;;;;;;5074924;28;20191;-86
2021/11/11 00:03:43;;;;;;;248.83;79.23;;;8.50;96.00;;;;;;5056867;28;20181;-87
2021/11/11 00:06:09;;;;;;;234.40;76.53;;;8.50;96.00;;;;;;5056900;28;20178;-86
2021/11/11 00:08:34;;;;;;;244.33;76.53;;;8.50;96.00;;;;;;5074803;28;20175;-87
2021/11/11 00:11:00;;;;;;;254.07;82.67;;;8.50;96.00;;;;;;5074712;28;20726;-86
2021/11/11 00:13:26;;;;;;;263.33;81.53;;;8.50;96.00;;;;;;5056739;28;20265;-87
2021/11/11 00:15:51;;;;;;;257.43;80.67;;;8.50;96.10;;;;;;5056679;28;20241;-87
2021/11/11 00:18:18;;;;;;;258.60;82.30;;;8.60;96.10;;;;;;5074496;28;20170;-87
2021/11/11 00:20:43;;;;;;;245.27;72.73;;;8.50;96.10;;;;;;5056434;28;20207;-86
2021/11/11 00:23:09;;;;;;;255.13;78.27;;;8.50;96.10;;;;;;5056487;28;20198;-87
2021/11/11 00:25:36;;;;;;;255.17;82.60;;;8.50;96.10;;;;;;5056502;28;20640;-87
2021/11/11 00:28:03;;;;;;;274.17;81.70;;;8.50;96.10;;;;;;5074600;28;20171;-87
2021/11/11 00:30:29;;;;;;;282.70;83.83;;;8.50;96.10;;;;;;5056308;28;20253;-87
2021/11/11 00:32:54;;;;;;;267.03;79.37;;;8.50;96.10;;;;;;5056365;28;20175;-87
2021/11/11 00:35:24;;;;;;;294.03;87.73;;;8.50;96.20;;;;;;5056204;28;20175;-86
2021/11/11 00:37:50;;;;;;;293.50;85.83;;;8.50;96.20;;;;;;5074161;28;20171;-87
2021/11/11 00:40:16;;;;;;;284.73;85.80;;;8.50;96.20;;;;;;5056138;28;20195;-86
2021/11/11 00:42:43;;;;;;;269.03;86.73;;;8.50;96.20;;;;;;5056194;28;20175;-86
2021/11/11 00:45:09;;;;;;;263.53;83.37;;;8.50;96.20;;;;;;5073968;28;20170;-86
2021/11/11 00:47:35;;;;;;;259.33;82.10;;;8.50;96.20;;;;;;5056227;28;20551;-86
2021/11/11 00:50:02;;;;;;;272.07;88.87;;;8.50;96.20;;;;;;5055864;28;20195;-87
2021/11/11 00:52:29;;;;;;;251.17;81.93;;;8.50;96.30;;;;;;5073938;28;20170;-87
2021/11/11 00:54:55;;;;;;;262.47;87.13;;;8.50;96.20;;;;;;5056146;28;20572;-87
2021/11/11 00:57:20;;;;;;;227.30;75.73;;;8.50;96.20;;;;;;5074368;28;20177;-87
2021/11/11 00:59:46;;;;;;;245.17;83.03;;;8.50;96.20;;;;;;5055914;28;20647;-86
2021/11/11 01:02:12;;;;;;;244.60;83.03;;;8.50;96.30;;;;;;5073274;28;20199;-86
2021/11/11 01:04:39;;;;;;;240.40;87.00;;;8.50;96.30;;;;;;5073776;28;20257;-86
2021/11/11 01:07:06;;;;;;;265.40;88.30;;;8.50;96.30;;;;;;5055710;28;20210;-86
2021/11/11 01:09:33;;;;;;;239.80;85.40;;;8.60;96.30;;;;;;5073530;28;20191;-87
2021/11/11 01:11:59;;;;;;;236.63;86.50;;;8.60;96.30;;;;;;5055645;28;20697;-87
2021/11/11 01:14:25;;;;;;;242.63;87.40;;;8.60;96.30;;;;;;5055671;28;20176;-87
2021/11/11 01:16:53;;;;;;;224.03;83.70;;;8.60;96.30;;;;;;5055748;28;20195;-87
2021/11/11 01:19:20;;;;;;;229.40;86.37;;;8.60;96.30;;;;;;5073440;28;20648;-87
2021/11/11 01:21:46;;;;;;;218.17;82.40;;;8.60;96.30;;;;;;5073215;28;20207;-87
2021/11/11 01:24:12;;;;;;;202.10;78.30;;;8.60;96.30;;;;;;5055534;28;20319;-87
2021/11/11 01:26:38;;;;;;;197.47;78.30;;;8.60;96.30;;;;;;5073433;28;20549;-87
2021/11/11 01:29:04;;;;;;;199.47;80.27;;;8.60;96.30;;;;;;5055365;28;20221;-87
2021/11/11 01:31:30;;;;;;;203.40;78.73;;;8.60;96.30;;;;;;5073353;28;20195;-87
2021/11/11 01:33:56;;;;;;;190.57;74.60;;;8.60;96.30;;;;;;5073236;28;20246;-86
2021/11/11 01:36:21;;;;;;;171.00;68.80;;;8.60;96.30;;;;;;5055883;28;20199;-87
2021/11/11 01:38:47;;;;;;;199.77;73.77;;;8.60;96.20;;;;;;5073268;28;20168;-87
2021/11/11 01:41:13;;;;;;;190.17;75.60;;;8.60;96.20;;;;;;5073143;28;20187;-87
2021/11/11 01:43:39;;;;;;;200.03;77.73;;;8.60;96.20;;;;;;5055291;28;20266;-87
2021/11/11 01:46:05;;;;;;;195.43;76.33;;;8.60;96.20;;;;;;5073283;28;20254;-86
2021/11/11 01:48:31;;;;;;;183.10;72.17;;;8.60;96.20;;;;;;5055208;28;20175;-86
2021/11/11 01:50:57;;;;;;;186.43;71.83;;;8.60;96.20;;;;;;5072875;28;20214;-86
2021/11/11 01:53:24;;;;;;;190.57;75.00;;;8.60;96.20;;;;;;5055058;28;20540;-86
2021/11/11 01:55:51;;;;;;;196.90;76.33;;;8.60;96.20;;;;;;5055226;28;20175;-86
2021/11/11 01:58:17;;;;;;;206.20;79.77;;;8.60;96.20;;;;;;5055946;28;20179;-86
2021/11/11 02:00:52;;;;;;;206.70;80.60;;;8.70;96.20;;;;;;5055050;28;20210;-87
2021/11/11 02:03:18;;;;;;;204.30;76.67;;;8.60;96.20;;;;;;5055086;28;20193;-87
2021/11/11 02:05:45;;;;;;;214.47;78.10;;;8.60;96.20;;;;;;5055112;28;20183;-85
2021/11/11 02:08:12;;;;;;;198.43;78.63;;;8.60;96.20;;;;;;5073058;28;20525;-85
2021/11/11 02:10:38;;;;;;;213.07;81.60;;;8.60;96.20;;;;;;5054963;28;20303;-85
2021/11/11 02:13:05;;;;;;;212.90;79.60;;;8.60;96.20;;;;;;5055048;28;20171;-85
2021/11/11 02:15:31;;;;;;;190.77;75.83;;;8.60;96.20;;;;;;5057964;28;20229;-87
2021/11/11 02:17:59;;;;;;;212.87;75.53;;;8.70;96.30;;;;;;5058909;28;20632;-87
2021/11/11 02:20:28;;;;;;;224.73;77.73;;;8.70;96.20;;;;;;5058674;28;20257;-86
2021/11/11 02:22:55;;;;;;;219.83;77.77;;;8.70;96.20;;;;;;5076829;28;20247;-87
2021/11/11 02:25:23;;;;;;;233.97;79.63;;;8.70;96.20;;;;;;5058716;28;20183;-87
2021/11/11 02:27:53;;;;;;;230.90;80.13;;;8.70;96.20;;;;;;5058706;28;20662;-87
2021/11/11 02:30:21;;;;;;;210.67;75.20;;;8.70;96.20;;;;;;5076528;28;20582;-87
2021/11/11 02:32:48;;;;;;;227.07;79.20;;;8.70;96.20;;;;;;5076856;28;20179;-87
2021/11/11 02:35:17;;;;;;;224.30;82.77;;;8.70;96.20;;;;;;5076497;28;20250;-87
2021/11/11 02:37:43;;;;;;;229.03;82.90;;;8.60;96.20;;;;;;5059396;28;20521;-87
2021/11/11 02:40:15;;;;;;;239.97;81.67;;;8.60;96.20;;;;;;5076382;28;20295;-87
2021/11/11 02:42:42;;;;;;;256.17;83.40;;;8.60;96.20;;;;;;5076471;28;20170;-87
2021/11/11 02:45:15;;;;;;;228.67;83.27;;;8.60;96.20;;;;;;5058499;28;20219;-86
2021/11/11 02:47:42;;;;;;;217.97;78.70;;;8.70;96.20;;;;;;5058395;28;20174;-86
2021/11/11 02:50:09;;;;;;;235.00;81.83;;;8.70;96.20;;;;;;5076059;28;20202;-86
2021/11/11 02:52:36;;;;;;;231.73;82.80;;;8.70;96.20;;;;;;5076170;28;20210;-87
2021/11/11 02:55:02;;;;;;;227.00;81.53;;;8.70;96.30;;;;;;5058345;28;20182;-87
2021/11/11 02:57:33;;;;;;;219.90;79.43;;;8.70;96.30;;;;;;5076114;28;20635;-86
2021/11/11 03:00:22;;;;;;;230.30;84.47;;;8.70;96.20;;;;;;5058144;28;20175;-86
2021/11/11 03:02:49;;;;;;;212.50;79.27;;;8.60;96.30;;;;;;5076107;28;20229;-86
2021/11/11 03:05:20;;;;;;;220.13;82.77;;;8.70;96.30;;;;;;5058084;28;20183;-87
2021/11/11 03:07:46;;;;;;;225.20;84.70;;;8.70;96.20;;;;;;5058005;28;20167;-87
2021/11/11 03:10:18;;;;;;;220.40;84.37;;;8.70;96.30;;;;;;5075934;28;20233;-87
2021/11/11 03:12:45;;;;;;;215.90;81.77;;;8.70;96.30;;;;;;5058273;28;20206;-87
2021/11/11 03:15:12;;;;;;;228.20;85.63;;;8.70;96.30;;;;;;5057818;28;20179;-87
2021/11/11 03:17:39;;;;;;;229.70;83.73;;;8.70;96.30;;;;;;5057853;28;20593;-86
2021/11/11 03:20:06;;;;;;;243.40;86.03;;;8.70;96.30;;;;;;5057481;28;20179;-87
2021/11/11 03:22:32;;;;;;;231.53;85.73;;;8.70;96.30;;;;;;5057717;28;20183;-87
2021/11/11 03:24:59;;;;;;;241.57;87.07;;;8.70;96.30;;;;;;5057324;28;20249;-86
2021/11/11 03:27:25;;;;;;;220.80;82.93;;;8.70;96.30;;;;;;5057605;28;20643;-87
2021/11/11 03:29:51;;;;;;;218.17;83.13;;;8.70;96.30;;;;;;5057467;28;20203;-87
2021/11/11 03:32:17;;;;;;;216.17;84.77;;;8.70;96.30;;;;;;5057533;28;20179;-87
2021/11/11 03:34:43;;;;;;;227.47;84.83;;;8.70;96.30;;;;;;5057464;28;20666;-86
2021/11/11 03:37:11;;;;;;;243.07;88.40;;;8.70;96.30;;;;;;5057411;28;20171;-87
2021/11/11 03:39:37;;;;;;;235.17;85.87;;;8.70;96.30;;;;;;5075325;28;20640;-87
2021/11/11 03:42:03;;;;;;;245.77;87.50;;;8.80;96.30;;;;;;5075173;28;20203;-87
2021/11/11 03:44:30;;;;;;;243.73;86.80;;;8.80;96.30;;;;;;5057402;28;20175;-87
2021/11/11 03:46:58;;;;;;;242.90;89.77;;;8.80;96.30;;;;;;5075479;28;20203;-87
2021/11/11 03:49:24;;;;;;;240.73;85.33;;;8.80;96.30;;;;;;5075058;28;20273;-87
2021/11/11 03:51:50;;;;;;;240.83;85.10;;;8.80;96.30;;;;;;5057210;28;20663;-87
2021/11/11 03:54:20;;;;;;;246.77;88.23;;;8.80;96.30;;;;;;5075189;28;20535;-87
2021/11/11 03:56:48;;;;;;;244.10;81.53;;;8.80;96.30;;;;;;5075609;28;20202;-87
2021/11/11 03:59:15;;;;;;;254.07;86.00;;;8.80;96.30;;;;;;5056998;28;20176;-86
2021/11/11 04:01:41;;;;;;;243.50;80.03;;;8.80;96.30;;;;;;5058048;28;20244;-86
2021/11/11 04:04:07;;;;;;;262.10;87.87;;;8.80;96.30;;;;;;5057169;28;20174;-86
2021/11/11 04:06:33;;;;;;;281.57;93.03;;;8.80;96.30;;;;;;5075068;28;20185;-87
2021/11/11 04:08:59;;;;;;;291.13;92.53;;;8.80;96.30;;;;;;5074688;28;20631;-87
2021/11/11 04:11:29;;;;;;;292.97;95.00;;;8.80;96.40;;;;;;5074616;28;20225;-87
2021/11/11 04:13:56;;;;;;;268.10;92.83;;;8.80;96.30;;;;;;5074667;28;20171;-87
2021/11/11 04:16:21;;;;;;;272.87;93.23;;;8.80;96.40;;;;;;5074843;28;20262;-87
2021/11/11 04:18:47;;;;;;;267.93;87.40;;;8.80;96.30;;;;;;5056600;28;20266;-87
2021/11/11 04:21:16;;;;;;;267.70;89.57;;;8.80;96.40;;;;;;5056503;28;20215;-86
2021/11/11 04:23:41;;;;;;;269.90;90.50;;;8.80;96.40;;;;;;5056627;28;20181;-87
2021/11/11 04:29:43;;;;;;;257.17;90.17;;;8.80;96.40;;;;;;5074341;28;20259;-87
2021/11/11 04:32:07;;;;;;;263.83;89.60;;;8.80;96.40;;;;;;5060638;28;20215;-87
2021/11/11 04:34:25;;;;;;;238.33;85.63;;;8.80;96.40;;;;;;5071028;28;20727;-87
2021/11/11 05:00:58;;;;;;;245.80;83.30;;;8.90;96.40;;;;;;5073985;28;20667;-86
2021/11/11 05:03:34;;;;;;;218.90;78.23;;;8.90;96.40;;;;;;5073686;28;20177;-86
2021/11/11 05:06:01;;;;;;;238.70;81.50;;;8.90;96.40;;;;;;5055866;28;20167;-86
2021/11/11 05:08:28;;;;;;;229.07;79.30;;;8.90;96.40;;;;;;5055697;28;20228;-86
2021/11/11 05:10:54;;;;;;;239.40;83.97;;;9.00;96.40;;;;;;5055730;28;20214;-86
2021/11/11 05:13:21;;;;;;;225.10;78.87;;;8.90;96.40;;;;;;5073637;28;20259;-87
2021/11/11 05:15:47;;;;;;;246.53;84.63;;;8.90;96.40;;;;;;5055637;28;20666;-87
2021/11/11 05:18:12;;;;;;;212.00;75.93;;;8.90;96.40;;;;;;5073489;28;20195;-87
2021/11/11 05:20:38;;;;;;;219.97;77.50;;;8.90;96.40;;;;;;5130839;22;20235;-88
2021/11/11 05:23:06;;;;;;;246.30;84.57;;;8.90;96.40;;;;;;5073483;28;20159;-88
2021/11/11 05:25:32;;;;;;;227.20;80.50;;;8.90;96.40;;;;;;5073353;28;20542;-88
2021/11/11 05:27:58;;;;;;;205.60;72.97;;;8.90;96.40;;;;;;5055451;28;20644;-89
2021/11/11 05:30:24;;;;;;;230.53;78.40;;;8.90;96.40;;;;;;5055293;28;20199;-88
2021/11/11 05:32:50;;;;;;;217.07;76.73;;;8.90;96.40;;;;;;5055438;28;20198;-88
2021/11/11 05:35:16;;;;;;;227.77;80.50;;;8.90;96.40;;;;;;5055330;28;20683;-88
2021/11/11 05:37:43;;;;;;;211.80;77.60;;;8.90;96.40;;;;;;5073199;28;20693;-88
2021/11/11 05:40:10;;;;;;;216.07;77.93;;;8.90;96.40;;;;;;5055297;28;20179;-88
2021/11/11 05:42:36;;;;;;;227.03;77.93;;;8.90;96.40;;;;;;5073454;28;20606;-88
2021/11/11 05:45:04;;;;;;;207.50;73.70;;;8.90;96.40;;;;;;5073122;28;20197;-88
2021/11/11 05:47:30;;;;;;;203.77;75.87;;;8.90;96.40;;;;;;5073073;28;20175;-88
2021/11/11 05:49:56;;;;;;;183.50;68.40;;;8.90;96.40;;;;;;5055235;28;20206;-88
2021/11/11 05:52:21;;;;;;;194.83;74.70;;;8.90;96.40;;;;;;5055218;28;20220;-88
2021/11/11 05:54:47;;;;;;;203.20;75.00;;;8.90;96.30;;;;;;5055361;28;20172;-88
2021/11/11 05:57:13;;;;;;;201.03;75.30;;;8.90;96.40;;;;;;5055093;28;20171;-88
2021/11/11 05:59:39;;;;;;;208.13;75.87;;;8.90;96.40;;;;;;5055036;28;20545;-88
2021/11/11 06:02:11;;;;;;;181.13;67.67;;;8.90;96.30;;;;;;5073085;28;20187;-87
2021/11/11 06:04:38;;;;;;;196.07;72.73;;;8.90;96.30;;;;;;5072999;28;20671;-88
2021/11/11 06:07:04;;;;;;;184.63;67.50;;;8.90;96.30;;;;;;5072917;28;20167;-89
2021/11/11 06:09:30;;;;;;;204.23;74.77;;;9.00;96.30;;;;;;5055065;28;20237;-87
2021/11/11 06:11:56;;;;;;;176.60;63.03;;;9.00;96.30;;;;;;5072927;28;20191;-88
2021/11/11 06:14:21;;;;;;;194.90;66.80;;;9.00;96.30;;;;;;5054976;28;20175;-87
2021/11/11 06:16:47;;;;;;;193.67;68.20;;;9.00;96.30;;;;;;5055074;28;20179;-87
2021/11/11 06:19:13;;;;;;;186.70;67.90;;;8.90;96.30;;;;;;5072906;28;20164;-89
2021/11/11 06:21:40;;;;;;;177.60;65.77;;;8.90;96.20;;;;;;5072689;28;20203;-88
2021/11/11 06:24:06;;;;;;;186.17;68.33;;;9.00;96.20;;;;;;5072752;28;20198;-88
2021/11/11 06:26:32;;;;;;;178.23;67.87;;;9.00;96.20;;;;;;5055040;28;20172;-89
2021/11/11 06:28:59;;;;;;;186.00;64.07;;;9.00;96.20;;;;;;5072797;28;20160;-88
2021/11/11 06:31:25;;;;;;;188.93;67.13;;;9.00;96.20;;;;;;5054829;28;20219;-89
2021/11/11 06:33:51;;;;;;;170.17;63.63;;;9.00;96.20;;;;;;5054803;28;20201;-87
2021/11/11 06:36:17;;;;;;;160.27;60.27;;;9.00;96.30;;;;;;5054732;28;20205;-88
2021/11/11 06:38:43;;;;;;;170.83;63.37;;;9.00;96.20;;;;;;5054677;28;20171;-88
2021/11/11 06:41:09;;;;;;;162.83;58.33;;;9.00;96.20;;;;;;5054598;28;20195;-88
2021/11/11 06:43:35;;;;;;;173.70;63.23;;;9.00;96.20;;;;;;5072523;28;20176;-88
2021/11/11 06:46:01;;;;;;;175.40;63.67;;;9.00;96.30;;;;;;5054921;28;20595;-89
2021/11/11 06:48:27;;;;;;;166.67;63.90;;;9.00;96.20;;;;;;5072585;28;20183;-88
2021/11/11 06:50:52;;;;;;;158.27;58.70;;;9.10;96.20;;;;;;5072302;28;20697;-88
2021/11/11 06:53:19;;;;;;;174.07;65.13;;;9.10;96.30;;;;;;5054672;28;20176;-88
2021/11/11 06:55:46;;;;;;;165.77;61.60;;;9.10;96.20;;;;;;5072641;28;20164;-88
2021/11/11 06:58:13;;;;;;;169.97;61.80;;;9.10;96.20;;;;;;5072559;28;20190;-88
2021/11/11 07:00:40;;;;;;;168.60;62.60;;;9.10;96.20;;;;;;5055843;28;20191;-88
2021/11/11 07:03:06;;;;;;;168.87;60.63;;;9.00;96.20;;;;;;5075989;28;20254;-88
2021/11/11 07:05:32;;;;;;;162.53;58.50;;;9.10;96.20;;;;;;5058076;28;20266;-88
2021/11/11 07:07:58;;;;;;;174.77;59.90;;;9.10;96.20;;;;;;5058111;28;20210;-88
2021/11/11 07:10:24;;;;;;;180.20;63.47;;;9.00;96.10;;;;;;5057820;28;20199;-88
2021/11/11 07:12:50;;;;;;;193.00;66.63;;;9.10;96.20;;;;;;5057914;28;20171;-89
2021/11/11 07:15:17;;;;;;;185.50;67.30;;;9.10;96.20;;;;;;5058165;28;20175;-88
2021/11/11 07:17:44;;;;;;;167.83;59.87;;;9.10;96.20;;;;;;5057897;28;20199;-89
2021/11/11 07:20:13;;;;;;;183.03;63.80;;;9.10;96.20;;;;;;5057766;28;20187;-88
2021/11/11 07:22:39;;;;;;;185.33;61.97;;;9.10;96.20;;;;;;5057593;28;20694;-88
2021/11/11 07:25:06;;;;;;;184.43;61.97;;;9.10;96.20;;;;;;5075570;28;20197;-88
2021/11/11 07:27:34;;;;;;;173.53;62.20;;;9.10;96.20;;;;;;5075589;28;20177;-88
2021/11/11 07:30:01;;;;;;;176.57;60.67;;;9.10;96.20;;;;;;5075578;28;20195;-88
2021/11/11 07:32:26;;;;;;;171.60;61.13;;;9.10;96.10;;;;;;5057522;28;20195;-88
2021/11/11 07:34:52;;;;;;;171.90;61.33;;;9.10;96.20;;;;;;5057913;28;20548;-89
2021/11/11 07:37:18;;;;;;;145.10;53.30;;;9.10;96.20;;;;;;5058546;28;20635;-88
2021/11/11 07:39:44;;;;;;;161.83;58.90;;;9.10;96.10;;;;;;5076685;28;20175;-88
2021/11/11 07:42:11;;;;;;;161.10;58.00;;;9.20;96.20;;;;;;5058352;28;20203;-88
2021/11/11 07:44:36;;;;;;;149.73;54.13;;;9.20;96.20;;;;;;5058344;28;20202;-88
2021/11/11 07:47:03;;;;;;;160.00;59.27;;;9.20;96.20;;;;;;5076036;28;20179;-88
2021/11/11 07:49:28;;;;;;;158.67;58.20;;;9.20;96.20;;;;;;5075772;28;20218;-88
2021/11/11 07:51:55;;;;;;;149.17;56.67;;;9.20;96.20;;;;;;5075725;28;20667;-89
2021/11/11 07:54:20;;;;;;;152.67;53.67;;;9.20;96.10;;;;;;5057787;28;20179;-89
2021/11/11 07:56:46;;;;;;;145.97;53.73;;;9.20;96.20;;;;;;5075761;28;20713;-88
2021/11/11 07:59:13;;;;;;;163.40;60.73;;;9.20;96.20;;;;;;5058003;28;20269;-89
2021/11/11 08:01:39;;;;;;;160.93;57.83;;;9.20;96.20;;;;;;5057771;28;20210;-88
2021/11/11 08:04:04;;;;;;;164.20;55.50;;;9.30;96.20;;;;;;5058109;28;20179;-87
2021/11/11 08:06:30;;;;;;;167.23;57.80;;;9.30;96.20;;;;;;5057847;28;20182;-88
2021/11/11 08:08:55;;;;;;;185.93;64.20;;;9.30;96.20;;;;;;5057821;28;20685;-88
2021/11/11 08:11:22;;;;;;;159.57;58.97;;;9.20;96.20;;;;;;5074970;28;20576;-88
2021/11/11 08:13:49;;;;;;;176.47;55.07;;;9.30;96.20;;;;;;5075950;28;20167;-89
2021/11/11 08:16:15;;;;;;;174.63;62.53;;;9.30;96.20;;;;;;5058034;28;20737;-88
2021/11/11 08:18:41;;;;;;;195.07;65.87;;;9.30;96.20;;;;;;5057596;28;20176;-88
2021/11/11 08:21:07;;;;;;;184.50;63.87;;;9.30;96.20;;;;;;5075816;28;20207;-89
2021/11/11 08:23:34;;;;;;;179.87;59.40;;;9.30;96.20;;;;;;5075640;28;20182;-89
2021/11/11 08:26:04;;;;;;;189.07;64.73;;;9.40;96.20;;;;;;5057476;28;20179;-88
2021/11/11 08:28:30;;;;;;;197.30;66.77;;;9.40;96.20;;;;;;5057592;28;20682;-87
2021/11/11 08:30:57;;;;;;;195.93;66.87;;;9.50;96.20;;;;;;5057420;28;20211;-88
2021/11/11 08:33:23;;;;;;;184.17;65.33;;;9.50;96.20;;;;;;5056900;28;20579;-90
2021/11/11 08:35:49;;;;;;;201.57;66.13;;;9.50;96.20;;;;;;5074970;28;20171;-89
2021/11/11 08:38:15;;;;;;;212.30;71.00;;;9.50;96.20;;;;;;5057783;28;20182;-89
2021/11/11 08:40:41;;;;;;;214.33;72.23;;;9.50;96.20;;;;;;5057986;28;20281;-89
2021/11/11 08:43:07;;;;;;;193.70;67.13;;;9.50;96.20;;;;;;5075569;28;20167;-89
2021/11/11 08:45:34;;;;;;;189.30;67.50;;;9.60;96.20;;;;;;5057668;28;20258;-89
2021/11/11 08:48:01;;;;;;;184.00;62.33;;;9.60;96.20;;;;;;5057687;28;20186;-89
2021/11/11 08:50:32;;;;;;;201.17;66.70;;;9.60;96.10;;;;;;5075212;28;20191;-89
2021/11/11 08:53:02;;;;;;;188.93;65.37;;;9.60;96.10;;;;;;5057822;28;20171;-88
2021/11/11 08:55:32;;;;;;;206.33;73.47;;;9.60;96.10;;;;;;5057960;28;20221;-88
2021/11/11 08:57:59;;;;;;;191.00;70.27;;;9.60;96.10;;;;;;5057598;28;20228;-88
2021/11/11 09:00:29;;;;;;;201.67;74.63;;;9.60;96.00;;;;;;5057346;28;20266;-90
2021/11/11 09:02:57;;;;;;;167.97;56.33;;;9.60;96.00;;;;;;5056988;28;20175;-88
2021/11/11 09:05:24;;;;;;;195.63;70.47;;;9.60;96.00;;;;;;5056776;28;20171;-89
2021/11/11 09:07:52;;;;;;;177.23;67.90;;;9.70;96.00;;;;;;5056077;28;20264;-88
2021/11/11 09:10:19;;;;;;;183.77;68.93;;;9.60;95.90;;;;;;5055993;28;20194;-87
2021/11/11 09:12:50;;;;;;;206.87;75.20;;;9.60;96.00;;;;;;5055899;28;20663;-89
2021/11/11 09:15:18;;;;;;;167.13;61.77;;;9.70;96.00;;;;;;5056097;28;20573;-89
2021/11/11 09:17:46;;;;;;;182.73;69.83;;;9.60;95.90;;;;;;5055872;28;20262;-89
2021/11/11 09:20:14;;;;;;;155.60;58.77;;;9.60;95.90;;;;;;5056340;28;20222;-89
2021/11/11 09:22:40;;;;;;;180.53;70.60;;;9.70;95.90;;;;;;5055674;28;20202;-88
2021/11/11 09:25:08;;;;;;;164.90;68.47;;;9.60;95.90;;;;;;5056163;28;20495;-89
2021/11/11 09:27:35;;;;;;;186.00;74.30;;;9.70;95.90;;;;;;5056511;28;20179;-89
2021/11/11 09:30:01;;;;;;;174.27;68.07;;;9.70;95.80;;;;;;5056049;28;20286;-89
2021/11/11 09:32:27;;;;;;;186.03;73.70;;;9.60;95.80;;;;;;5055492;28;20194;-89
2021/11/11 09:34:53;;;;;;;192.83;74.53;;;9.70;95.80;;;;;;5056247;28;20175;-88
2021/11/11 09:37:19;;;;;;;182.00;71.40;;;9.70;95.80;;;;;;5073531;28;20280;-88
2021/11/11 09:39:45;;;;;;;166.20;63.87;;;9.70;95.80;;;;;;5055434;28;20264;-89
2021/11/11 09:42:10;;;;;;;172.73;68.40;;;9.60;95.80;;;;;;5073734;28;20206;-89
2021/11/11 09:44:36;;;;;;;163.23;66.07;;;9.70;95.80;;;;;;5056208;28;20221;-88
2021/11/11 09:47:03;;;;;;;163.83;65.93;;;9.70;95.70;;;;;;5055519;28;20175;-89
2021/11/11 09:49:29;;;;;;;161.47;65.50;;;9.70;95.80;;;;;;5073459;28;20269;-90
2021/11/11 09:51:55;;;;;;;163.90;68.77;;;9.70;95.70;;;;;;5055843;28;20274;-89
2021/11/11 09:59:40;;;;;;;137.93;57.90;;;9.70;95.80;;;;;;5073885;28;20249;-88
2021/11/11 10:02:08;;;;;;;157.60;66.77;;;9.70;95.70;;;;;;5073480;28;20631;-88
2021/11/11 10:04:34;;;;;;;165.73;69.63;;;9.70;95.70;;;;;;5055603;28;20199;-88
2021/11/11 10:07:01;;;;;;;163.73;64.30;;;9.70;95.80;;;;;;5056334;28;20245;-88
2021/11/11 10:09:27;;;;;;;166.93;72.23;;;9.70;95.80;;;;;;5056138;28;20213;-88
2021/11/11 10:12:03;;;;;;;185.53;73.63;;;9.70;95.80;;;;;;5056005;28;20199;-88
2021/11/11 10:14:36;;;;;;;174.10;70.47;;;9.70;95.80;;;;;;5055564;28;20212;-88
2021/11/11 10:17:06;;;;;;;169.47;73.90;;;9.80;95.80;;;;;;5073440;28;20576;-88
2021/11/11 10:19:36;;;;;;;170.67;70.00;;;9.70;95.80;;;;;;5054867;28;20654;-89
2021/11/11 10:22:17;;;;;;;170.53;71.73;;;9.80;95.80;;;;;;5073307;28;20230;-88
2021/11/11 10:24:54;;;;;;;180.67;71.73;;;9.70;95.80;;;;;;5073513;28;20677;-88
2021/11/11 10:27:31;;;;;;;155.13;63.53;;;9.80;95.80;;;;;;5073752;28;20178;-87
2021/11/11 10:30:08;;;;;;;167.30;70.93;;;9.70;95.80;;;;;;5056219;28;20565;-88
2021/11/11 10:32:37;;;;;;;163.00;69.70;;;9.70;95.80;;;;;;5055640;28;20594;-88
2021/11/11 10:35:15;;;;;;;156.33;66.50;;;9.80;95.80;;;;;;5056976;28;20172;-88
2021/11/11 10:37:57;;;;;;;160.10;68.17;;;9.80;95.80;;;;;;5077751;28;20156;-88
2021/11/11 10:40:24;;;;;;;159.53;68.57;;;9.80;95.80;;;;;;5058719;28;20541;-90
2021/11/11 10:42:52;;;;;;;163.10;69.07;;;9.80;95.80;;;;;;5058609;28;20167;-88
2021/11/11 10:45:23;;;;;;;159.67;67.43;;;9.90;95.80;;;;;;5058656;28;20172;-88
2021/11/11 10:47:52;;;;;;;154.17;64.10;;;9.80;95.80;;;;;;5058731;28;20171;-88
2021/11/11 10:50:24;;;;;;;159.83;70.67;;;9.80;95.70;;;;;;5076385;28;20545;-88
2021/11/11 10:52:53;;;;;;;180.77;74.60;;;9.80;95.70;;;;;;5058469;28;20182;-89
2021/11/11 10:55:39;;;;;;;172.53;71.63;;;9.80;95.70;;;;;;5058538;28;20225;-88
2021/11/11 10:58:07;;;;;;;160.03;72.20;;;9.80;95.70;;;;;;5058484;28;20272;-88
2021/11/11 11:00:40;;;;;;;169.90;71.97;;;9.80;95.70;;;;;;5058407;28;20188;-88
2021/11/11 11:03:13;;;;;;;169.30;71.17;;;9.80;95.70;;;;;;5076517;28;20164;-88
2021/11/11 11:05:48;;;;;;;163.40;71.03;;;9.80;95.70;;;;;;5058685;28;20540;-88
2021/11/11 11:08:17;;;;;;;168.67;73.47;;;9.80;95.70;;;;;;5058342;28;20179;-89
2021/11/11 11:10:50;;;;;;;164.07;71.80;;;9.90;95.70;;;;;;5058052;28;20239;-88
2021/11/11 11:13:23;;;;;;;148.43;64.37;;;9.90;95.70;;;;;;5058134;28;20168;-88
2021/11/11 11:15:52;;;;;;;174.93;73.93;;;9.80;95.70;;;;;;5058002;28;20202;-89
2021/11/11 11:18:25;;;;;;;152.30;65.93;;;9.80;95.70;;;;;;5058008;28;20231;-88
2021/11/11 11:20:56;;;;;;;151.73;67.73;;;9.90;95.70;;;;;;5075985;28;20203;-89
2021/11/11 11:23:32;;;;;;;154.97;67.70;;;9.90;95.70;;;;;;5058960;28;20171;-88
2021/11/11 11:26:03;;;;;;;145.50;66.83;;;10.00;95.70;;;;;;5058860;28;20171;-87
2021/11/11 11:28:37;;;;;;;131.57;59.73;;;10.00;95.70;;;;;;5058773;28;20708;-89
2021/11/11 11:31:06;;;;;;;136.80;62.80;;;10.00;95.70;;;;;;5057880;28;20210;-88
2021/11/11 11:33:43;;;;;;;132.87;58.70;;;10.00;95.70;;;;;;5058031;28;20657;-89
2021/11/11 11:36:15;;;;;;;132.27;60.33;;;10.10;95.70;;;;;;5076285;28;20163;-88
2021/11/11 11:38:52;;;;;;;128.93;57.87;;;10.10;95.70;;;;;;5076082;28;20269;-89
2021/11/11 11:41:34;;;;;;;127.83;57.43;;;10.10;95.70;;;;;;5058449;28;20293;-88
2021/11/11 11:44:31;;;;;;;125.20;56.13;;;10.10;95.70;;;;;;5058226;28;20269;-89
2021/11/11 11:47:17;;;;;;;113.53;54.17;;;10.20;95.70;;;;;;5058826;28;20224;-89
2021/11/11 11:49:52;;;;;;;119.60;53.77;;;10.20;95.70;;;;;;5058619;28;20670;-88
2021/11/11 11:52:18;;;;;;;117.07;56.47;;;10.20;95.60;;;;;;5058280;28;20289;-89
2021/11/11 11:55:03;;;;;;;107.13;50.20;;;10.10;95.60;;;;;;5059171;28;20179;-88
2021/11/11 12:00:11;;;;;;;122.30;57.33;;;10.10;95.60;;;;;;5076409;28;20171;-89
2021/11/11 12:07:56;;;;;;;108.83;55.37;;;10.20;95.60;;;;;;5076249;28;20200;-88
2021/11/11 12:38:35;;;;;;;95.70;50.17;;;10.10;95.60;;;;;;5075545;28;20161;-88
2021/11/11 12:41:27;;;;;;;94.93;49.97;;;10.10;95.70;;;;;;5056934;28;20203;-89
2021/11/11 12:44:12;;;;;;;95.13;51.53;;;10.10;95.70;;;;;;5054319;28;20282;-89
2021/11/11 12:46:48;;;;;;;90.57;49.43;;;10.10;95.70;;;;;;5057086;28;20262;-89
2021/11/11 12:49:35;;;;;;;97.00;50.53;;;10.10;95.70;;;;;;5075154;28;20241;-90
2021/11/11 12:52:12;;;;;;;86.70;47.93;;;10.10;95.70;;;;;;5056969;28;20207;-88
2021/11/11 12:54:43;;;;;;;95.53;47.50;;;10.10;95.70;;;;;;5056752;28;20170;-89
2021/11/11 12:57:10;;;;;;;97.43;49.77;;;10.10;95.70;;;;;;5074487;28;20166;-90
2021/11/11 12:59:37;;;;;;;89.40;47.37;;;10.10;95.70;;;;;;5073788;28;20175;-88
2021/11/11 13:02:09;;;;;;;85.37;46.27;;;10.10;95.80;;;;;;5074250;28;20694;-88
2021/11/11 13:05:04;;;;;;;84.40;46.37;;;10.10;95.80;;;;;;5056450;28;20542;-89
2021/11/11 13:07:33;;;;;;;79.53;44.27;;;10.10;95.70;;;;;;5034474;28;20554;-88
2021/11/11 13:10:20;;;;;;;93.77;49.20;;;10.10;95.70;;;;;;5056104;28;20218;-89
2021/11/11 13:13:09;;;;;;;84.47;43.83;;;10.10;95.70;;;;;;5056373;28;20172;-89
2021/11/11 13:15:42;;;;;;;83.40;44.03;;;10.10;95.70;;;;;;5056354;28;20171;-89
2021/11/11 13:18:09;;;;;;;86.00;46.37;;;10.10;95.70;;;;;;5056139;28;20563;-88
2021/11/11 13:20:45;;;;;;;86.73;44.53;;;10.10;95.70;;;;;;5055732;28;20203;-89
2021/11/11 13:23:20;;;;;;;82.00;43.20;;;10.10;95.80;;;;;;5056125;28;20179;-89
2021/11/11 13:29:08;;;;;;;78.27;42.00;;;10.10;95.70;;;;;;5074525;28;20222;-89
2021/11/11 16:26:55;;;;;;;86.10;46.30;;;10.00;95.60;;;;;;5075948;28;20217;-89
2021/11/11 16:29:22;;;;;;;81.53;47.03;;;10.00;95.60;;;;;;5057512;28;20178;-88
2021/11/11 16:31:48;;;;;;;85.50;46.63;;;10.00;95.60;;;;;;5057559;28;20199;-88
2021/11/11 16:34:14;;;;;;;79.57;46.27;;;10.00;95.60;;;;;;5056450;28;20197;-88
2021/11/11 16:36:41;;;;;;;87.50;48.57;;;10.00;95.60;;;;;;5075371;28;20630;-89
2021/11/11 16:39:07;;;;;;;87.70;47.53;;;10.00;95.60;;;;;;5057766;28;20182;-88